Time;durP1;ratioP1;P1;durP2;ratioP2;P2;SDS_P1;SDS_P2;PMS_P1;PMS_P2;Temp;Humidity;BMP_temperature;BMP_pressure;BME280_temperature;BME280_humidity;BME280_pressure;Samples;Min_cycle;Max_cycle;Signal;HPM_P1;HPM_P2
2023/11/21 00:01:17;;;;;;;;;;;;;;;6.26;100.00;100367.44;5056891;28;19924;-83
2023/11/21 00:03:45;;;;;;;;;;;;;;;6.25;100.00;100363.09;5069113;28;19925;-84
2023/11/21 00:06:14;;;;;;;;;;;;;;;6.21;100.00;100383.59;5071811;28;19929;-85
2023/11/21 00:08:47;;;;;;;;;;;;;;;6.25;100.00;100376.59;5053477;28;21376;-85
2023/11/21 00:11:15;;;;;;;;;;;;;;;6.26;100.00;100385.53;5054096;28;21356;-83
2023/11/21 00:13:45;;;;;;;;;;;;;;;6.19;100.00;100385.75;5065397;28;19925;-85
2023/11/21 00:16:18;;;;;;;;;;;;;;;6.14;100.00;100391.09;5072506;28;19936;-85
2023/11/21 00:18:51;;;;;;;;;;;;;;;6.07;100.00;100385.91;5053326;28;19947;-84
2023/11/21 00:21:19;;;;;;;;;;;;;;;6.09;100.00;100399.16;5056129;28;19947;-85
2023/11/21 00:23:46;;;;;;;;;;;;;;;6.03;100.00;100387.50;5052794;28;19954;-85
2023/11/21 00:26:15;;;;;;;;;;;;;;;6.04;100.00;100397.25;5049566;28;20300;-85
2023/11/21 00:28:58;;;;;;;;;;;;;;;5.92;100.00;100404.66;5053093;28;20303;-84
2023/11/21 00:31:26;;;;;;;;;;;;;;;5.93;100.00;100396.28;5055607;28;19931;-85
2023/11/21 00:33:59;;;;;;;;;;;;;;;5.91;100.00;100411.13;5049962;28;20300;-84
2023/11/21 00:36:27;;;;;;;;;;;;;;;5.83;100.00;100412.41;5050424;28;20245;-85
2023/11/21 00:38:55;;;;;;;;;;;;;;;5.78;100.00;100418.56;5055123;28;19932;-85
2023/11/21 00:41:28;;;;;;;;;;;;;;;5.86;100.00;100419.19;5051213;28;19924;-84
2023/11/21 00:43:56;;;;;;;;;;;;;;;5.76;100.00;100423.41;5050776;28;19936;-84
2023/11/21 00:46:31;;;;;;;;;;;;;;;5.78;100.00;100417.75;5068013;28;19948;-84
2023/11/21 00:49:04;;;;;;;;;;;;;;;5.79;100.00;100414.00;5052457;28;19924;-85
2023/11/21 00:51:37;;;;;;;;;;;;;;;5.77;100.00;100422.34;5047746;28;19928;-85
2023/11/21 00:54:06;;;;;;;;;;;;;;;5.67;100.00;100430.31;5051167;28;19924;-84
2023/11/21 00:56:34;;;;;;;;;;;;;;;5.65;100.00;100439.75;5071225;28;20384;-84
2023/11/21 00:59:07;;;;;;;;;;;;;;;5.69;100.00;100446.25;5067199;28;19928;-84
2023/11/21 01:01:37;;;;;;;;;;;;;;;5.68;100.00;100448.16;5052054;28;20023;-85
2023/11/21 01:04:10;;;;;;;;;;;;;;;5.66;100.00;100447.59;5069959;28;19924;-85
2023/11/21 01:06:43;;;;;;;;;;;;;;;5.60;100.00;100471.00;5052439;28;19924;-85
2023/11/21 01:09:12;;;;;;;;;;;;;;;5.60;100.00;100459.41;5064382;28;19925;-84
2023/11/21 01:11:40;;;;;;;;;;;;;;;5.62;100.00;100463.50;5051307;28;19924;-84
2023/11/21 01:14:14;;;;;;;;;;;;;;;5.54;100.00;100466.63;5052819;28;19929;-84
2023/11/21 01:16:49;;;;;;;;;;;;;;;5.48;100.00;100475.72;5053237;28;19925;-87
2023/11/21 01:19:17;;;;;;;;;;;;;;;5.49;100.00;100480.06;5070900;28;19931;-84
2023/11/21 01:21:50;;;;;;;;;;;;;;;5.51;100.00;100485.19;5046479;28;19929;-85
2023/11/21 01:24:18;;;;;;;;;;;;;;;5.52;100.00;100484.13;5051902;28;19935;-84
2023/11/21 01:26:51;;;;;;;;;;;;;;;5.54;100.00;100485.53;5054423;28;19925;-84
2023/11/21 01:29:19;;;;;;;;;;;;;;;5.54;100.00;100480.13;5064043;28;19932;-84
2023/11/21 01:31:54;;;;;;;;;;;;;;;5.52;100.00;100489.53;5052959;28;19935;-85
2023/11/21 01:34:23;;;;;;;;;;;;;;;5.48;100.00;100486.50;5051314;28;19928;-85
2023/11/21 01:36:51;;;;;;;;;;;;;;;5.52;100.00;100490.34;5051109;28;19925;-85
2023/11/21 01:39:23;;;;;;;;;;;;;;;5.49;100.00;100487.34;5061215;28;19924;-85
2023/11/21 01:41:51;;;;;;;;;;;;;;;5.49;100.00;100490.84;5053766;28;19929;-85
2023/11/21 01:44:24;;;;;;;;;;;;;;;5.40;100.00;100487.78;5046695;28;19928;-84
2023/11/21 01:46:54;;;;;;;;;;;;;;;5.43;100.00;100492.66;5051512;28;19948;-85
2023/11/21 01:49:22;;;;;;;;;;;;;;;5.40;100.00;100485.09;5050435;28;19931;-84
2023/11/21 01:51:55;;;;;;;;;;;;;;;5.40;100.00;100490.47;5066366;28;20396;-85
2023/11/21 01:54:23;;;;;;;;;;;;;;;5.29;100.00;100488.72;5051621;28;19928;-84
2023/11/21 01:56:56;;;;;;;;;;;;;;;5.22;100.00;100488.06;5071074;28;19928;-84
2023/11/21 01:59:24;;;;;;;;;;;;;;;5.31;100.00;100496.56;5053396;28;19929;-84
2023/11/21 02:01:56;;;;;;;;;;;;;;;5.32;100.00;100500.88;5052165;28;19925;-85
2023/11/21 02:04:29;;;;;;;;;;;;;;;5.36;100.00;100505.53;5054466;28;19929;-84
2023/11/21 02:07:05;;;;;;;;;;;;;;;5.27;100.00;100507.84;5066525;28;19924;-84
2023/11/21 02:09:38;;;;;;;;;;;;;;;5.24;100.00;100508.31;5052229;28;19925;-86
2023/11/21 02:12:11;;;;;;;;;;;;;;;5.14;100.00;100516.28;5052613;28;19924;-85
2023/11/21 02:14:44;;;;;;;;;;;;;;;5.23;100.00;100522.06;5050057;28;19932;-85
2023/11/21 02:17:14;;;;;;;;;;;;;;;5.24;100.00;100523.72;5050416;28;19925;-85
2023/11/21 02:19:42;;;;;;;;;;;;;;;5.18;100.00;100532.78;5050050;28;19932;-86
2023/11/21 02:22:11;;;;;;;;;;;;;;;5.23;100.00;100541.78;5048529;28;19924;-86
2023/11/21 02:24:46;;;;;;;;;;;;;;;5.19;100.00;100535.25;5070551;28;19925;-84
2023/11/21 02:27:17;;;;;;;;;;;;;;;5.15;100.00;100544.91;5049008;28;19931;-84
2023/11/21 02:29:45;;;;;;;;;;;;;;;5.19;100.00;100540.66;5051735;28;19924;-85
2023/11/21 02:32:19;;;;;;;;;;;;;;;5.18;100.00;100543.56;5064553;28;19928;-85
2023/11/21 02:34:51;;;;;;;;;;;;;;;5.12;100.00;100561.56;5051269;28;19924;-85
2023/11/21 02:37:25;;;;;;;;;;;;;;;5.08;100.00;100563.13;5053239;28;19928;-86
2023/11/21 02:39:54;;;;;;;;;;;;;;;5.14;100.00;100562.16;5051668;28;19943;-85
2023/11/21 02:42:27;;;;;;;;;;;;;;;5.13;100.00;100565.09;5047202;28;19928;-86
2023/11/21 02:45:00;;;;;;;;;;;;;;;5.10;100.00;100567.22;5053327;28;19925;-84
2023/11/21 02:47:33;;;;;;;;;;;;;;;5.02;100.00;100570.31;5052736;28;20657;-84
2023/11/21 02:50:01;;;;;;;;;;;;;;;5.16;100.00;100572.69;5048640;28;19925;-84
2023/11/21 02:52:35;;;;;;;;;;;;;;;5.17;100.00;100572.44;5070086;28;19932;-85
2023/11/21 02:55:04;;;;;;;;;;;;;;;5.10;100.00;100571.78;5047415;28;19948;-84
2023/11/21 02:57:33;;;;;;;;;;;;;;;5.11;100.00;100573.44;5060698;28;19924;-86
2023/11/21 03:00:01;;;;;;;;;;;;;;;5.08;100.00;100574.75;5073849;28;19932;-84
2023/11/21 03:02:29;;;;;;;;;;;;;;;5.11;100.00;100571.56;5049129;28;19947;-84
2023/11/21 03:05:02;;;;;;;;;;;;;;;5.09;100.00;100584.44;5064480;28;19924;-85
2023/11/21 03:07:35;;;;;;;;;;;;;;;5.10;100.00;100577.19;5052145;28;19932;-86
2023/11/21 03:10:10;;;;;;;;;;;;;;;5.02;100.00;100580.31;5049021;28;19940;-85
2023/11/21 03:12:38;;;;;;;;;;;;;;;4.94;100.00;100581.50;5068625;28;19940;-85
2023/11/21 03:15:07;;;;;;;;;;;;;;;4.89;100.00;100579.56;5049752;28;19932;-85
2023/11/21 03:17:40;;;;;;;;;;;;;;;4.91;100.00;100577.41;5052490;28;20400;-85
2023/11/21 03:20:10;;;;;;;;;;;;;;;4.82;100.00;100576.22;5052693;28;19936;-85
2023/11/21 03:22:38;;;;;;;;;;;;;;;4.84;100.00;100582.16;5052919;28;19924;-84
2023/11/21 03:25:13;;;;;;;;;;;;;;;4.86;100.00;100585.44;5065841;28;19931;-85
2023/11/21 03:27:40;;;;;;;;;;;;;;;4.78;100.00;100583.16;5048708;28;20413;-86
2023/11/21 03:30:13;;;;;;;;;;;;;;;4.79;100.00;100578.56;5048008;28;19928;-84
2023/11/21 03:32:46;;;;;;;;;;;;;;;4.72;100.00;100584.09;5071406;28;19928;-86
2023/11/21 03:35:20;;;;;;;;;;;;;;;4.73;100.00;100593.84;5072713;28;19924;-87
2023/11/21 03:37:48;;;;;;;;;;;;;;;4.68;100.00;100599.97;5055179;28;19929;-85
2023/11/21 03:40:24;;;;;;;;;;;;;;;4.60;100.00;100603.84;5054278;28;19948;-86
2023/11/21 03:42:57;;;;;;;;;;;;;;;4.68;100.00;100608.06;5065341;28;19932;-85
2023/11/21 03:45:25;;;;;;;;;;;;;;;4.62;100.00;100618.97;5053671;28;19932;-85
2023/11/21 03:47:52;;;;;;;;;;;;;;;4.62;100.00;100627.06;5064204;28;20379;-85
2023/11/21 03:50:20;;;;;;;;;;;;;;;4.62;100.00;100624.38;5050780;28;19932;-86
2023/11/21 03:52:48;;;;;;;;;;;;;;;4.69;100.00;100642.03;5050239;28;19940;-85
2023/11/21 03:55:16;;;;;;;;;;;;;;;4.66;100.00;100639.00;5068519;28;19925;-87
2023/11/21 03:57:46;;;;;;;;;;;;;;;4.69;100.00;100643.91;5052875;28;19932;-86
2023/11/21 04:00:20;;;;;;;;;;;;;;;4.77;100.00;100648.91;5052815;28;19924;-85
2023/11/21 04:02:48;;;;;;;;;;;;;;;4.73;100.00;100650.44;5052396;28;20662;-86
2023/11/21 04:05:22;;;;;;;;;;;;;;;4.81;100.00;100652.75;5049205;28;20385;-86
2023/11/21 04:07:55;;;;;;;;;;;;;;;4.81;100.00;100651.94;5054187;28;19932;-85
2023/11/21 04:10:23;;;;;;;;;;;;;;;4.77;100.00;100659.69;5071379;28;19928;-86
2023/11/21 04:12:57;;;;;;;;;;;;;;;4.81;100.00;100666.25;5056345;28;19933;-84
2023/11/21 04:15:25;;;;;;;;;;;;;;;4.86;100.00;100666.34;5071373;28;19925;-84
2023/11/21 04:17:53;;;;;;;;;;;;;;;4.87;100.00;100667.97;5073709;28;19932;-84
2023/11/21 04:20:23;;;;;;;;;;;;;;;4.87;100.00;100669.84;5051070;28;20372;-84
2023/11/21 04:22:51;;;;;;;;;;;;;;;4.87;100.00;100678.75;5070327;28;19924;-84
2023/11/21 04:25:24;;;;;;;;;;;;;;;4.83;100.00;100684.88;5054683;28;19935;-84
2023/11/21 04:27:52;;;;;;;;;;;;;;;4.86;100.00;100689.78;5069058;28;19931;-84
2023/11/21 04:30:22;;;;;;;;;;;;;;;4.82;100.00;100696.72;5058821;28;19925;-84
2023/11/21 04:32:50;;;;;;;;;;;;;;;4.86;100.00;100698.69;5068713;28;19924;-84
2023/11/21 04:35:18;;;;;;;;;;;;;;;4.89;100.00;100695.50;5055539;28;19932;-84
2023/11/21 04:37:46;;;;;;;;;;;;;;;4.89;100.00;100702.78;5071095;28;20377;-85
2023/11/21 04:40:20;;;;;;;;;;;;;;;4.80;100.00;100699.66;5050955;28;19929;-85
2023/11/21 04:42:53;;;;;;;;;;;;;;;4.85;100.00;100698.94;5054578;28;19944;-84
2023/11/21 04:45:27;;;;;;;;;;;;;;;4.77;100.00;100705.53;5052673;28;19932;-84
2023/11/21 04:47:56;;;;;;;;;;;;;;;4.81;100.00;100709.38;5067638;28;20320;-83
2023/11/21 04:50:28;;;;;;;;;;;;;;;4.82;100.00;100713.72;5057872;28;19936;-84
2023/11/21 04:52:56;;;;;;;;;;;;;;;4.82;100.00;100720.97;5050654;28;19925;-84
2023/11/21 04:55:27;;;;;;;;;;;;;;;4.83;100.00;100720.72;5052141;28;19932;-86
2023/11/21 04:57:55;;;;;;;;;;;;;;;4.78;100.00;100723.34;5054657;28;19932;-85
2023/11/21 05:00:23;;;;;;;;;;;;;;;4.83;100.00;100725.31;5050912;28;19925;-85
2023/11/21 05:02:58;;;;;;;;;;;;;;;4.80;100.00;100723.09;5062586;28;19932;-84
2023/11/21 05:05:26;;;;;;;;;;;;;;;4.86;100.00;100719.44;5051630;28;19928;-84
2023/11/21 05:07:59;;;;;;;;;;;;;;;4.80;100.00;100723.09;5053025;28;19924;-87
2023/11/21 05:10:26;;;;;;;;;;;;;;;4.80;100.00;100726.63;5072623;28;19928;-85
2023/11/21 05:12:55;;;;;;;;;;;;;;;4.83;100.00;100733.41;5053510;28;19931;-83
2023/11/21 05:15:23;;;;;;;;;;;;;;;4.76;100.00;100736.22;5055970;28;19932;-85
2023/11/21 05:17:52;;;;;;;;;;;;;;;4.86;100.00;100741.84;5054690;28;19924;-84
2023/11/21 05:20:21;;;;;;;;;;;;;;;4.83;100.00;100741.50;5068143;28;19940;-84
2023/11/21 05:22:49;;;;;;;;;;;;;;;4.78;100.00;100744.91;5065410;28;19928;-84
2023/11/21 05:25:22;;;;;;;;;;;;;;;4.81;100.00;100757.91;5067809;28;19925;-84
2023/11/21 05:27:55;;;;;;;;;;;;;;;4.82;100.00;100759.56;5070383;28;19932;-84
2023/11/21 05:30:28;;;;;;;;;;;;;;;4.78;100.00;100761.09;5045464;28;19924;-84
2023/11/21 05:33:01;;;;;;;;;;;;;;;4.75;100.00;100765.09;5049080;28;19924;-84
2023/11/21 05:35:35;;;;;;;;;;;;;;;4.73;100.00;100761.78;5048565;28;19925;-84
2023/11/21 05:38:03;;;;;;;;;;;;;;;4.75;100.00;100758.84;5049907;28;19925;-83
2023/11/21 05:40:31;;;;;;;;;;;;;;;4.74;100.00;100760.75;5067013;28;19948;-84
2023/11/21 05:42:59;;;;;;;;;;;;;;;4.74;100.00;100765.34;5067893;28;19928;-84
2023/11/21 05:45:28;;;;;;;;;;;;;;;4.74;100.00;100763.44;5067700;28;19924;-84
2023/11/21 05:47:56;;;;;;;;;;;;;;;4.77;100.00;100778.31;5071373;28;20373;-84
2023/11/21 05:50:30;;;;;;;;;;;;;;;4.76;100.00;100779.38;5063455;28;20693;-84
2023/11/21 05:53:05;;;;;;;;;;;;;;;4.77;100.00;100781.81;5051098;28;20392;-85
2023/11/21 05:55:39;;;;;;;;;;;;;;;4.77;100.00;100791.81;5050020;28;19924;-84
2023/11/21 05:58:07;;;;;;;;;;;;;;;4.72;100.00;100784.44;5045683;28;19932;-84
2023/11/21 06:00:35;;;;;;;;;;;;;;;4.76;100.00;100796.38;5053158;28;19931;-84
2023/11/21 06:03:08;;;;;;;;;;;;;;;4.82;100.00;100796.47;5060190;28;19936;-82
2023/11/21 06:05:41;;;;;;;;;;;;;;;4.80;100.00;100796.72;5050254;28;19925;-86
2023/11/21 06:08:16;;;;;;;;;;;;;;;4.81;100.00;100800.25;5050317;28;19932;-85
2023/11/21 06:10:44;;;;;;;;;;;;;;;4.80;100.00;100807.50;5046986;28;19924;-86
2023/11/21 06:13:12;;;;;;;;;;;;;;;4.83;100.00;100807.00;5049915;28;19929;-85
2023/11/21 06:15:45;;;;;;;;;;;;;;;4.76;100.00;100809.03;5050272;28;20862;-86
2023/11/21 06:18:13;;;;;;;;;;;;;;;4.77;100.00;100819.56;5045401;28;19925;-88
2023/11/21 06:20:41;;;;;;;;;;;;;;;4.78;100.00;100828.50;5048179;28;19925;-85
2023/11/21 06:23:09;;;;;;;;;;;;;;;4.75;100.00;100837.03;5052324;28;20087;-83
2023/11/21 06:25:39;;;;;;;;;;;;;;;4.76;100.00;100836.84;5047676;28;20365;-88
2023/11/21 06:28:08;;;;;;;;;;;;;;;4.72;100.00;100845.63;5049522;28;20376;-87
2023/11/21 06:30:39;;;;;;;;;;;;;;;4.73;100.00;100844.56;5048345;28;19928;-85
2023/11/21 06:33:08;;;;;;;;;;;;;;;4.76;100.00;100850.31;5051702;28;19924;-87
2023/11/21 06:35:36;;;;;;;;;;;;;;;4.69;100.00;100851.47;5043939;28;20003;-87
2023/11/21 06:38:04;;;;;;;;;;;;;;;4.68;100.00;100850.69;5049760;28;19928;-87
2023/11/21 06:40:33;;;;;;;;;;;;;;;4.56;100.00;100855.25;5066157;28;19925;-87
2023/11/21 06:43:04;;;;;;;;;;;;;;;4.62;100.00;100862.38;5044976;28;20270;-87
2023/11/21 06:45:38;;;;;;;;;;;;;;;4.65;100.00;100867.31;5046045;28;19924;-87
2023/11/21 06:48:06;;;;;;;;;;;;;;;4.62;100.00;100870.47;5052370;28;19954;-87
2023/11/21 06:50:34;;;;;;;;;;;;;;;4.57;100.00;100867.66;5051617;28;19932;-86
2023/11/21 06:53:03;;;;;;;;;;;;;;;4.52;100.00;100879.16;5057738;28;19924;-87
2023/11/21 06:55:32;;;;;;;;;;;;;;;4.60;100.00;100876.09;5050208;28;19947;-87
2023/11/21 06:58:01;;;;;;;;;;;;;;;4.58;100.00;100877.38;5050724;28;19928;-87
2023/11/21 07:00:30;;;;;;;;;;;;;;;4.57;100.00;100884.66;5052281;28;19932;-87
2023/11/21 07:02:58;;;;;;;;;;;;;;;4.54;100.00;100895.09;5049560;28;20258;-87
2023/11/21 07:05:26;;;;;;;;;;;;;;;4.48;100.00;100902.22;5052883;28;19931;-88
2023/11/21 07:07:54;;;;;;;;;;;;;;;4.46;100.00;100904.34;5054084;28;19924;-86
2023/11/21 07:10:23;;;;;;;;;;;;;;;4.52;100.00;100911.50;5056217;28;19931;-87
2023/11/21 07:12:51;;;;;;;;;;;;;;;4.43;100.00;100919.13;5057732;28;19928;-87
2023/11/21 07:15:19;;;;;;;;;;;;;;;4.52;100.00;100916.88;5056798;28;19924;-87
2023/11/21 07:17:53;;;;;;;;;;;;;;;4.52;100.00;100921.47;5048211;28;19983;-87
2023/11/21 07:20:27;;;;;;;;;;;;;;;4.48;100.00;100923.78;5056750;28;20639;-86
2023/11/21 07:23:00;;;;;;;;;;;;;;;4.52;100.00;100919.56;5061296;28;19940;-86
2023/11/21 07:25:28;;;;;;;;;;;;;;;4.50;100.00;100923.56;5058044;28;19936;-87
2023/11/21 07:27:56;;;;;;;;;;;;;;;4.44;100.00;100938.78;5055189;28;19931;-87
2023/11/21 07:30:24;;;;;;;;;;;;;;;4.46;100.00;100939.38;5060125;28;19928;-88
2023/11/21 07:32:54;;;;;;;;;;;;;;;4.52;100.00;100956.50;5053965;28;19947;-85
2023/11/21 07:35:22;;;;;;;;;;;;;;;4.50;100.00;100959.44;5047085;28;19924;-87
2023/11/21 07:37:50;;;;;;;;;;;;;;;4.55;100.00;100950.63;5055664;28;19929;-87
2023/11/21 07:40:18;;;;;;;;;;;;;;;4.56;100.00;100949.59;5049967;28;20475;-86
2023/11/21 07:42:46;;;;;;;;;;;;;;;4.63;100.00;100960.25;5071436;28;19932;-87
2023/11/21 07:45:15;;;;;;;;;;;;;;;4.59;100.00;100968.78;5054081;28;19943;-87
2023/11/21 07:47:43;;;;;;;;;;;;;;;4.65;100.00;100977.03;5067917;28;20356;-84
2023/11/21 07:50:13;;;;;;;;;;;;;;;4.60;100.00;100978.53;5007438;28;19940;-87
2023/11/21 07:52:41;;;;;;;;;;;;;;;4.63;100.00;100987.19;5054381;28;19940;-88
2023/11/21 07:55:14;;;;;;;;;;;;;;;4.69;100.00;100984.41;5031281;28;19932;-88
2023/11/21 07:57:42;;;;;;;;;;;;;;;4.75;100.00;100986.19;5034996;28;19951;-88
2023/11/21 08:00:12;;;;;;;;;;;;;;;4.76;100.00;100989.69;5032472;28;20781;-88
2023/11/21 08:02:54;;;;;;;;;;;;;;;4.79;100.00;100993.78;5027902;28;19932;-88
2023/11/21 08:05:24;;;;;;;;;;;;;;;4.74;100.00;100991.81;5035828;28;19939;-86
2023/11/21 08:07:52;;;;;;;;;;;;;;;4.81;100.00;100989.00;5033368;28;19932;-86
2023/11/21 08:10:21;;;;;;;;;;;;;;;4.75;100.00;100998.81;5058069;28;19939;-89
2023/11/21 08:12:51;;;;;;;;;;;;;;;4.75;100.00;100996.97;5032674;28;21234;-89
2023/11/21 08:15:19;;;;;;;;;;;;;;;4.82;100.00;101004.94;5030501;28;19943;-89
2023/11/21 08:17:52;;;;;;;;;;;;;;;4.87;100.00;101001.53;5033389;28;19933;-87
2023/11/21 08:20:26;;;;;;;;;;;;;;;4.90;100.00;101004.59;5033277;28;19967;-88
2023/11/21 08:22:56;;;;;;;;;;;;;;;4.87;100.00;101004.22;5032937;28;19940;-88
2023/11/21 08:25:25;;;;;;;;;;;;;;;4.96;100.00;101012.78;5046131;28;19932;-88
2023/11/21 08:27:56;;;;;;;;;;;;;;;4.99;100.00;101015.84;5035704;28;19939;-88
2023/11/21 08:30:24;;;;;;;;;;;;;;;5.00;100.00;101016.66;5045230;28;19925;-86
2023/11/21 08:32:58;;;;;;;;;;;;;;;5.00;100.00;101013.97;5032500;28;19939;-88
2023/11/21 08:35:27;;;;;;;;;;;;;;;5.07;100.00;101026.28;5033486;28;19932;-89
2023/11/21 08:37:55;;;;;;;;;;;;;;;5.08;100.00;101024.41;5032591;28;20377;-89
2023/11/21 08:40:23;;;;;;;;;;;;;;;5.15;100.00;101030.53;5038970;28;20499;-87
2023/11/21 08:42:52;;;;;;;;;;;;;;;5.20;100.00;101036.00;5033854;28;19932;-87
2023/11/21 08:45:20;;;;;;;;;;;;;;;5.24;100.00;101045.28;5036466;28;19932;-86
2023/11/21 08:47:49;;;;;;;;;;;;;;;5.25;100.00;101038.03;5036866;28;19932;-89
2023/11/21 08:50:17;;;;;;;;;;;;;;;5.21;100.00;101048.47;5027331;28;19928;-88
2023/11/21 08:52:47;;;;;;;;;;;;;;;5.37;100.00;101046.94;5035841;28;19932;-88
2023/11/21 08:55:15;;;;;;;;;;;;;;;5.53;100.00;101052.66;5030908;28;19932;-88
2023/11/21 08:57:45;;;;;;;;;;;;;;;5.43;100.00;101056.78;5030146;28;19932;-88
2023/11/21 09:00:15;;;;;;;;;;;;;;;5.51;100.00;101068.25;5031908;28;20612;-87
2023/11/21 09:02:46;;;;;;;;;;;;;;;5.35;100.00;101069.81;5035080;28;19940;-89
2023/11/21 09:05:15;;;;;;;;;;;;;;;5.35;100.00;101072.50;5032795;28;19936;-90
2023/11/21 09:07:45;;;;;;;;;;;;;;;5.35;100.00;101077.91;5033709;28;20361;-88
2023/11/21 09:10:15;;;;;;;;;;;;;;;5.34;100.00;101074.38;5037457;28;20714;-86
2023/11/21 09:12:45;;;;;;;;;;;;;;;5.20;100.00;101079.19;5036639;28;19928;-87
2023/11/21 09:15:14;;;;;;;;;;;;;;;5.20;100.00;101083.78;5033792;28;19932;-86
2023/11/21 09:17:43;;;;;;;;;;;;;;;5.26;100.00;101089.06;5033873;28;19955;-88
2023/11/21 09:20:11;;;;;;;;;;;;;;;5.27;100.00;101095.25;5036050;28;20296;-89
2023/11/21 09:22:40;;;;;;;;;;;;;;;5.23;100.00;101107.59;5055313;28;19955;-88
2023/11/21 09:25:26;;;;;;;;;;;;;;;5.30;100.00;101105.59;5084447;27;19950;-87
2023/11/21 09:27:54;;;;;;;;;;;;;;;5.27;100.00;101111.47;5061412;27;20042;-87
2023/11/21 09:30:24;;;;;;;;;;;;;;;5.36;100.00;101114.63;5082773;28;20309;-88
2023/11/21 09:32:52;;;;;;;;;;;;;;;5.36;100.00;101125.41;5088142;28;20430;-88
2023/11/21 09:35:20;;;;;;;;;;;;;;;5.37;100.00;101127.06;5071576;27;19938;-87
2023/11/21 09:37:49;;;;;;;;;;;;;;;5.30;100.00;101126.38;5081241;28;20542;-89
2023/11/21 09:40:22;;;;;;;;;;;;;;;5.43;100.00;101134.25;5074632;28;19943;-87
2023/11/21 09:42:54;;;;;;;;;;;;;;;5.43;100.00;101139.66;5068999;28;19936;-88
2023/11/21 09:45:25;;;;;;;;;;;;;;;5.37;100.00;101140.56;5092556;27;19939;-86
2023/11/21 09:47:55;;;;;;;;;;;;;;;5.42;100.00;101144.19;5068127;28;19931;-87
2023/11/21 09:50:24;;;;;;;;;;;;;;;5.38;100.00;101148.41;5058892;27;20278;-88
2023/11/21 09:52:57;;;;;;;;;;;;;;;5.40;100.00;101157.13;5089111;28;19935;-87
2023/11/21 09:55:28;;;;;;;;;;;;;;;5.39;100.00;101150.06;5081295;28;19938;-86
2023/11/21 09:57:58;;;;;;;;;;;;;;;5.42;100.00;101152.31;5085829;28;20318;-89
2023/11/21 10:00:27;;;;;;;;;;;;;;;5.44;100.00;101152.91;5087674;28;19931;-88
2023/11/21 10:02:56;;;;;;;;;;;;;;;5.43;100.00;101153.13;5075185;28;19938;-85
2023/11/21 10:05:25;;;;;;;;;;;;;;;5.31;100.00;101160.41;5071849;28;19932;-87
2023/11/21 10:07:54;;;;;;;;;;;;;;;5.40;100.00;101172.47;5066245;28;21217;-87
2023/11/21 10:10:23;;;;;;;;;;;;;;;5.38;100.00;101172.72;5078494;28;20168;-87
2023/11/21 10:12:53;;;;;;;;;;;;;;;5.38;100.00;101172.72;5072868;28;20391;-88
2023/11/21 10:15:25;;;;;;;;;;;;;;;5.42;100.00;101175.78;5060627;28;19932;-88
2023/11/21 10:17:53;;;;;;;;;;;;;;;5.52;100.00;101183.31;5058418;28;19932;-88
2023/11/21 10:20:21;;;;;;;;;;;;;;;5.52;100.00;101184.09;5060839;28;19955;-87
2023/11/21 10:22:50;;;;;;;;;;;;;;;5.51;100.00;101181.66;5079203;27;19931;-87
2023/11/21 10:25:20;;;;;;;;;;;;;;;5.37;100.00;101181.88;5079303;28;20403;-87
2023/11/21 10:27:51;;;;;;;;;;;;;;;5.57;100.00;101180.72;5066428;28;19932;-88
2023/11/21 10:30:19;;;;;;;;;;;;;;;5.64;100.00;101184.13;5065441;28;20522;-87
2023/11/21 10:32:49;;;;;;;;;;;;;;;5.71;100.00;101174.03;5066168;28;19932;-87
2023/11/21 10:35:17;;;;;;;;;;;;;;;5.79;100.00;101176.38;5056216;28;19932;-88
2023/11/21 10:37:45;;;;;;;;;;;;;;;5.72;100.00;101188.38;5048402;28;19943;-87
2023/11/21 10:40:13;;;;;;;;;;;;;;;5.65;100.00;101184.94;5047841;28;20333;-87
2023/11/21 10:42:42;;;;;;;;;;;;;;;5.63;100.00;101174.38;5055977;28;21395;-87
2023/11/21 10:45:13;;;;;;;;;;;;;;;5.63;100.00;101174.38;5063076;28;21224;-88
2023/11/21 10:47:41;;;;;;;;;;;;;;;5.67;100.00;101172.84;5065898;28;19928;-86
2023/11/21 10:50:11;;;;;;;;;;;;;;;5.66;100.00;101182.00;5048951;27;19931;-86
2023/11/21 10:52:43;;;;;;;;;;;;;;;5.64;100.00;101191.41;5065227;28;20390;-88
2023/11/21 10:55:18;;;;;;;;;;;;;;;5.70;100.00;101185.88;5057729;28;19939;-88
2023/11/21 10:57:49;;;;;;;;;;;;;;;5.66;100.00;101190.09;5061078;28;19932;-88
2023/11/21 11:00:20;;;;;;;;;;;;;;;5.68;100.00;101203.41;5053148;28;19932;-88
2023/11/21 11:02:50;;;;;;;;;;;;;;;5.54;100.00;101213.59;5071488;28;19931;-89
2023/11/21 11:05:20;;;;;;;;;;;;;;;5.60;100.00;101199.97;5069510;28;19932;-87
2023/11/21 11:07:52;;;;;;;;;;;;;;;5.62;100.00;101202.44;5054854;28;19931;-89
2023/11/21 11:10:22;;;;;;;;;;;;;;;5.55;100.00;101189.06;5053782;28;19939;-87
2023/11/21 11:12:52;;;;;;;;;;;;;;;5.63;100.00;101195.97;5072611;28;19939;-87
2023/11/21 11:15:21;;;;;;;;;;;;;;;5.57;100.00;101196.94;5059018;28;19939;-88
2023/11/21 11:17:49;;;;;;;;;;;;;;;5.58;100.00;101209.38;5055173;28;19931;-86
2023/11/21 11:20:19;;;;;;;;;;;;;;;5.69;100.00;101208.56;5047928;28;19939;-86
2023/11/21 11:22:57;;;;;;;;;;;;;;;5.56;100.00;101219.56;5049645;28;20385;-90
2023/11/21 11:25:40;;;;;;;;;;;;;;;5.51;100.00;101232.94;5048930;28;19932;-87
2023/11/21 11:28:09;;;;;;;;;;;;;;;5.47;100.00;101238.00;5044945;28;19932;-87
2023/11/21 11:30:48;;;;;;;;;;;;;;;5.38;100.00;101239.38;5055522;28;19932;-87
2023/11/21 11:33:25;;;;;;;;;;;;;;;5.31;100.00;101242.19;5056137;28;19954;-88
2023/11/21 11:35:57;;;;;;;;;;;;;;;5.43;100.00;101242.22;5053866;28;19931;-86
2023/11/21 11:38:32;;;;;;;;;;;;;;;5.52;100.00;101243.50;5052269;28;19936;-87
2023/11/21 11:41:02;;;;;;;;;;;;;;;5.49;100.00;101238.56;5079452;28;19955;-87
2023/11/21 11:43:32;;;;;;;;;;;;;;;5.42;100.00;101240.56;5057511;28;20317;-88
2023/11/21 11:46:03;;;;;;;;;;;;;;;5.46;100.00;101233.66;5050305;28;19932;-87
2023/11/21 11:48:36;;;;;;;;;;;;;;;5.42;100.00;101230.59;5053052;28;19970;-87
2023/11/21 11:51:04;;;;;;;;;;;;;;;5.43;100.00;101228.72;5029022;27;20519;-88
2023/11/21 11:53:41;;;;;;;;;;;;;;;5.34;100.00;101236.31;5078970;28;20326;-87
2023/11/21 11:56:26;;;;;;;;;;;;;;;5.31;100.00;101247.56;5055993;28;19943;-87
2023/11/21 11:58:56;;;;;;;;;;;;;;;5.34;100.00;101240.91;5066513;28;19931;-89
2023/11/21 12:01:25;;;;;;;;;;;;;;;5.26;100.00;101245.56;5053560;28;21269;-88
2023/11/21 12:04:14;;;;;;;;;;;;;;;5.23;100.00;101247.91;5051227;28;20330;-87
2023/11/21 12:06:42;;;;;;;;;;;;;;;5.16;100.00;101261.47;5047094;28;19931;-88
2023/11/21 12:09:14;;;;;;;;;;;;;;;5.11;100.00;101262.19;5063625;28;19932;-87
2023/11/21 12:11:43;;;;;;;;;;;;;;;5.20;100.00;101262.66;5055671;28;19931;-89
2023/11/21 12:14:13;;;;;;;;;;;;;;;5.26;100.00;101261.78;5048515;28;19971;-87
2023/11/21 12:16:42;;;;;;;;;;;;;;;5.30;100.00;101255.91;5075977;28;20594;-88
2023/11/21 12:19:11;;;;;;;;;;;;;;;5.27;100.00;101257.19;5076488;28;19932;-88
2023/11/21 12:21:40;;;;;;;;;;;;;;;5.32;100.00;101262.72;5058352;28;19935;-89
2023/11/21 12:24:09;;;;;;;;;;;;;;;5.41;100.00;101263.22;5065001;28;19938;-88
2023/11/21 12:26:39;;;;;;;;;;;;;;;5.43;100.00;101267.31;5047497;28;19932;-89
2023/11/21 12:29:08;;;;;;;;;;;;;;;5.44;100.00;101265.44;5048463;28;20227;-87
2023/11/21 12:31:36;;;;;;;;;;;;;;;5.49;100.00;101265.56;5052223;28;19932;-87
2023/11/21 12:34:06;;;;;;;;;;;;;;;5.47;100.00;101266.84;5058906;28;20429;-89
2023/11/21 12:36:36;;;;;;;;;;;;;;;5.42;100.00;101279.16;5068553;28;21054;-89
2023/11/21 12:39:04;;;;;;;;;;;;;;;5.50;100.00;101280.72;5051086;28;20617;-88
2023/11/21 12:41:32;;;;;;;;;;;;;;;5.54;100.00;101287.31;5059408;28;19939;-88
2023/11/21 12:44:02;;;;;;;;;;;;;;;5.51;100.00;101290.47;5047081;28;19932;-88
2023/11/21 12:46:32;;;;;;;;;;;;;;;5.46;100.00;101295.75;5052518;28;19932;-88
2023/11/21 12:49:01;;;;;;;;;;;;;;;5.45;100.00;101302.19;5066167;28;20261;-88
2023/11/21 12:51:30;;;;;;;;;;;;;;;5.50;100.00;101306.91;5049563;28;20418;-88